This is the latest recevied weather packets stored in our database for station/object KCKV. If no packets are shown the sender has not sent any weather packets the latest 10 day(s).
| Time | Temp. | Humidity | Pressure | Rain* | Wind** | Luminosity | Snow |
|---|---|---|---|---|---|---|---|
| 1777662808 | 17.78° C | - | 1016.6 hPa | - | - | - | - |
| 1777662214 | 17.78° C | - | 1016.6 hPa | - | - | - | - |
| 1777659212 | 17.78° C | 34% | 1016.6 hPa | - | - | - | - |
| 1777656812 | 16.67° C | 45% | 1016.9 hPa | - | - | - | - |
| 1777656211 | 16.67° C | 45% | 1016.9 hPa | - | - | - | - |
| 1777655610 | 16.67° C | 45% | 1016.9 hPa | - | - | - | - |
| 1777655008 | 16.67° C | 45% | 1016.9 hPa | - | - | - | - |
| 1777653208 | 16.67° C | 45% | 1017.3 hPa | - | - | - | - |
| 1777652609 | 16.67° C | 45% | 1017.3 hPa | - | - | - | - |
| 1777652012 | 16.67° C | 45% | 1017.3 hPa | - | - | - | - |
| 1777650810 | 15.56° C | 44% | 1016.9 hPa | - | - | - | - |
| 1777650211 | 15.56° C | 44% | 1016.9 hPa | - | - | - | - |
| 1777649611 | 15.56° C | 44% | 1016.9 hPa | - | - | - | - |
| 1777649008 | 15.56° C | 44% | 1016.9 hPa | - | - | - | - |
| 1777648409 | 15.56° C | 44% | 1016.9 hPa | - | - | - | - |
| 1777647812 | 15.56° C | 44% | 1016.9 hPa | - | - | - | - |
| 1777647211 | 13.89° C | 67% | 1016.6 hPa | - | - | - | - |
| 1777646008 | 13.89° C | 67% | 1016.6 hPa | - | - | - | - |
| 1777645407 | 13.89° C | 67% | 1016.6 hPa | - | - | - | - |
| 1777644805 | 13.89° C | 67% | 1016.6 hPa | - | - | - | - |
| 1777644210 | 13.89° C | 67% | 1016.6 hPa | - | - | - | - |
| 1777643611 | 11.67° C | 71% | 1016.3 hPa | - | - | - | - |
| 1777642410 | 11.67° C | 71% | 1016.3 hPa | - | - | - | - |
| 1777641803 | 11.67° C | 71% | 1016.3 hPa | - | - | - | - |
| 1777640008 | 7.78° C | 87% | 1015.6 hPa | - | - | - | - |
* Rain since midnight (hover to see other rain measurements)
** Current wind speed in m/s (hover to see current wind gust speed)